sensor_id;sensor_type;location;lat;lon;timestamp;P1;durP1;ratioP1;P2;durP2;ratioP2
59786;SDS011;45672;51.612;5.536;2022-10-31T00:02:26;18.52;;;12.13;;
59786;SDS011;45672;51.612;5.536;2022-10-31T00:04:51;21.85;;;12.57;;
59786;SDS011;45672;51.612;5.536;2022-10-31T00:07:16;17.40;;;12.15;;
59786;SDS011;45672;51.612;5.536;2022-10-31T00:09:41;18.00;;;12.68;;
59786;SDS011;45672;51.612;5.536;2022-10-31T00:12:07;19.77;;;12.40;;
59786;SDS011;45672;51.612;5.536;2022-10-31T00:14:32;22.73;;;12.65;;
59786;SDS011;45672;51.612;5.536;2022-10-31T00:16:57;18.30;;;12.55;;
59786;SDS011;45672;51.612;5.536;2022-10-31T00:19:22;20.33;;;12.77;;
59786;SDS011;45672;51.612;5.536;2022-10-31T00:21:48;22.23;;;12.02;;
59786;SDS011;45672;51.612;5.536;2022-10-31T00:24:13;20.25;;;12.23;;
59786;SDS011;45672;51.612;5.536;2022-10-31T00:26:38;20.73;;;12.13;;
59786;SDS011;45672;51.612;5.536;2022-10-31T00:29:04;23.10;;;12.38;;
59786;SDS011;45672;51.612;5.536;2022-10-31T00:31:29;19.38;;;12.82;;
59786;SDS011;45672;51.612;5.536;2022-10-31T00:33:55;25.92;;;11.93;;
59786;SDS011;45672;51.612;5.536;2022-10-31T00:36:20;20.33;;;12.35;;
59786;SDS011;45672;51.612;5.536;2022-10-31T00:38:46;19.38;;;12.20;;
59786;SDS011;45672;51.612;5.536;2022-10-31T00:41:12;20.52;;;12.45;;
59786;SDS011;45672;51.612;5.536;2022-10-31T00:43:39;19.90;;;12.32;;
59786;SDS011;45672;51.612;5.536;2022-10-31T00:46:05;19.83;;;11.95;;
59786;SDS011;45672;51.612;5.536;2022-10-31T00:48:30;20.63;;;12.70;;
59786;SDS011;45672;51.612;5.536;2022-10-31T00:50:55;26.30;;;12.65;;
59786;SDS011;45672;51.612;5.536;2022-10-31T00:53:21;20.73;;;12.07;;
59786;SDS011;45672;51.612;5.536;2022-10-31T00:55:46;16.90;;;11.65;;
59786;SDS011;45672;51.612;5.536;2022-10-31T00:58:12;15.48;;;11.43;;
59786;SDS011;45672;51.612;5.536;2022-10-31T01:00:37;17.67;;;11.57;;
59786;SDS011;45672;51.612;5.536;2022-10-31T01:03:03;17.67;;;12.40;;
59786;SDS011;45672;51.612;5.536;2022-10-31T01:05:28;18.55;;;12.32;;
59786;SDS011;45672;51.612;5.536;2022-10-31T01:07:53;23.58;;;12.80;;
59786;SDS011;45672;51.612;5.536;2022-10-31T01:10:18;17.77;;;12.20;;
59786;SDS011;45672;51.612;5.536;2022-10-31T01:12:45;18.63;;;11.52;;
59786;SDS011;45672;51.612;5.536;2022-10-31T01:15:12;23.00;;;12.27;;
59786;SDS011;45672;51.612;5.536;2022-10-31T01:17:40;23.00;;;13.05;;
59786;SDS011;45672;51.612;5.536;2022-10-31T01:20:05;22.92;;;11.90;;
59786;SDS011;45672;51.612;5.536;2022-10-31T01:22:32;21.25;;;12.43;;
59786;SDS011;45672;51.612;5.536;2022-10-31T01:24:58;19.77;;;12.90;;
59786;SDS011;45672;51.612;5.536;2022-10-31T01:27:23;20.63;;;12.63;;
59786;SDS011;45672;51.612;5.536;2022-10-31T01:29:49;20.35;;;13.10;;
59786;SDS011;45672;51.612;5.536;2022-10-31T01:32:14;19.17;;;12.70;;
59786;SDS011;45672;51.612;5.536;2022-10-31T01:34:39;17.95;;;12.90;;
59786;SDS011;45672;51.612;5.536;2022-10-31T01:37:05;22.38;;;13.10;;
59786;SDS011;45672;51.612;5.536;2022-10-31T01:39:30;17.65;;;11.93;;
59786;SDS011;45672;51.612;5.536;2022-10-31T01:41:55;20.10;;;12.85;;
59786;SDS011;45672;51.612;5.536;2022-10-31T01:52:20;17.17;;;12.48;;
59786;SDS011;45672;51.612;5.536;2022-10-31T01:54:51;21.15;;;13.02;;
59786;SDS011;45672;51.612;5.536;2022-10-31T01:57:21;16.75;;;12.77;;
59786;SDS011;45672;51.612;5.536;2022-10-31T01:59:47;21.60;;;12.25;;
59786;SDS011;45672;51.612;5.536;2022-10-31T02:02:17;20.83;;;12.40;;
59786;SDS011;45672;51.612;5.536;2022-10-31T02:04:43;16.92;;;12.38;;
59786;SDS011;45672;51.612;5.536;2022-10-31T02:07:12;19.58;;;12.60;;
59786;SDS011;45672;51.612;5.536;2022-10-31T02:09:41;19.08;;;12.65;;
59786;SDS011;45672;51.612;5.536;2022-10-31T02:12:09;18.35;;;12.43;;
59786;SDS011;45672;51.612;5.536;2022-10-31T02:14:35;19.55;;;12.48;;
59786;SDS011;45672;51.612;5.536;2022-10-31T02:17:02;19.27;;;12.48;;
59786;SDS011;45672;51.612;5.536;2022-10-31T02:33:55;17.95;;;12.27;;
59786;SDS011;45672;51.612;5.536;2022-10-31T02:39:40;22.15;;;11.25;;
59786;SDS011;45672;51.612;5.536;2022-10-31T02:44:39;14.85;;;11.43;;
59786;SDS011;45672;51.612;5.536;2022-10-31T02:47:14;17.55;;;11.35;;
59786;SDS011;45672;51.612;5.536;2022-10-31T02:52:29;17.50;;;11.82;;
59786;SDS011;45672;51.612;5.536;2022-10-31T02:57:28;17.50;;;11.57;;
59786;SDS011;45672;51.612;5.536;2022-10-31T02:59:59;17.88;;;10.88;;
59786;SDS011;45672;51.612;5.536;2022-10-31T03:02:30;18.95;;;11.05;;
59786;SDS011;45672;51.612;5.536;2022-10-31T03:08:08;16.55;;;11.25;;
59786;SDS011;45672;51.612;5.536;2022-10-31T03:19:03;16.50;;;10.90;;
59786;SDS011;45672;51.612;5.536;2022-10-31T03:21:35;19.17;;;12.38;;
59786;SDS011;45672;51.612;5.536;2022-10-31T03:24:10;16.90;;;11.40;;
59786;SDS011;45672;51.612;5.536;2022-10-31T03:26:38;16.95;;;11.02;;
59786;SDS011;45672;51.612;5.536;2022-10-31T03:29:08;17.15;;;11.32;;
59786;SDS011;45672;51.612;5.536;2022-10-31T03:31:37;17.52;;;11.30;;
59786;SDS011;45672;51.612;5.536;2022-10-31T03:34:10;16.08;;;11.32;;
59786;SDS011;45672;51.612;5.536;2022-10-31T03:36:37;20.00;;;12.07;;
59786;SDS011;45672;51.612;5.536;2022-10-31T03:39:05;15.15;;;10.98;;
59786;SDS011;45672;51.612;5.536;2022-10-31T03:41:33;16.15;;;11.77;;
59786;SDS011;45672;51.612;5.536;2022-10-31T03:44:05;17.85;;;12.15;;
59786;SDS011;45672;51.612;5.536;2022-10-31T03:46:35;17.23;;;11.65;;
59786;SDS011;45672;51.612;5.536;2022-10-31T03:49:01;20.95;;;12.23;;
59786;SDS011;45672;51.612;5.536;2022-10-31T03:56:55;15.80;;;12.02;;
59786;SDS011;45672;51.612;5.536;2022-10-31T03:59:32;21.05;;;11.77;;
59786;SDS011;45672;51.612;5.536;2022-10-31T04:02:02;17.83;;;11.48;;
59786;SDS011;45672;51.612;5.536;2022-10-31T04:04:32;16.47;;;11.70;;
59786;SDS011;45672;51.612;5.536;2022-10-31T04:06:59;16.27;;;11.30;;
59786;SDS011;45672;51.612;5.536;2022-10-31T04:09:26;19.60;;;11.50;;
59786;SDS011;45672;51.612;5.536;2022-10-31T04:11:55;15.32;;;11.65;;
59786;SDS011;45672;51.612;5.536;2022-10-31T04:14:24;18.38;;;11.80;;
59786;SDS011;45672;51.612;5.536;2022-10-31T04:16:52;21.00;;;12.57;;
59786;SDS011;45672;51.612;5.536;2022-10-31T04:19:19;19.50;;;12.60;;
59786;SDS011;45672;51.612;5.536;2022-10-31T04:21:44;23.50;;;13.93;;
59786;SDS011;45672;51.612;5.536;2022-10-31T04:24:09;23.02;;;12.48;;
59786;SDS011;45672;51.612;5.536;2022-10-31T04:26:36;19.60;;;12.23;;
59786;SDS011;45672;51.612;5.536;2022-10-31T04:29:01;17.98;;;12.90;;
59786;SDS011;45672;51.612;5.536;2022-10-31T04:31:26;20.52;;;12.13;;
59786;SDS011;45672;51.612;5.536;2022-10-31T04:33:52;19.95;;;11.77;;
59786;SDS011;45672;51.612;5.536;2022-10-31T04:36:17;21.38;;;12.65;;
59786;SDS011;45672;51.612;5.536;2022-10-31T04:38:43;20.33;;;13.23;;
59786;SDS011;45672;51.612;5.536;2022-10-31T04:41:08;24.60;;;12.77;;
59786;SDS011;45672;51.612;5.536;2022-10-31T04:43:33;22.00;;;13.60;;
59786;SDS011;45672;51.612;5.536;2022-10-31T04:45:59;20.20;;;13.63;;
59786;SDS011;45672;51.612;5.536;2022-10-31T04:48:24;24.23;;;13.73;;
59786;SDS011;45672;51.612;5.536;2022-10-31T04:50:50;21.70;;;13.05;;
59786;SDS011;45672;51.612;5.536;2022-10-31T04:53:15;18.90;;;12.57;;
59786;SDS011;45672;51.612;5.536;2022-10-31T04:55:40;19.88;;;12.63;;
59786;SDS011;45672;51.612;5.536;2022-10-31T04:58:05;22.13;;;12.68;;
59786;SDS011;45672;51.612;5.536;2022-10-31T05:00:31;26.25;;;13.25;;
59786;SDS011;45672;51.612;5.536;2022-10-31T05:02:56;19.33;;;12.82;;
59786;SDS011;45672;51.612;5.536;2022-10-31T05:05:23;18.55;;;12.75;;
59786;SDS011;45672;51.612;5.536;2022-10-31T05:07:50;16.35;;;12.93;;
59786;SDS011;45672;51.612;5.536;2022-10-31T05:10:17;19.73;;;12.85;;
59786;SDS011;45672;51.612;5.536;2022-10-31T05:12:45;23.17;;;13.60;;
59786;SDS011;45672;51.612;5.536;2022-10-31T05:15:14;18.70;;;12.80;;
59786;SDS011;45672;51.612;5.536;2022-10-31T05:17:40;16.33;;;12.68;;
59786;SDS011;45672;51.612;5.536;2022-10-31T05:20:06;19.40;;;13.27;;
59786;SDS011;45672;51.612;5.536;2022-10-31T05:22:31;21.10;;;12.95;;
59786;SDS011;45672;51.612;5.536;2022-10-31T05:24:57;20.17;;;13.07;;
59786;SDS011;45672;51.612;5.536;2022-10-31T05:27:22;24.45;;;13.88;;
59786;SDS011;45672;51.612;5.536;2022-10-31T05:29:47;22.42;;;13.68;;
59786;SDS011;45672;51.612;5.536;2022-10-31T05:32:12;25.38;;;14.38;;
59786;SDS011;45672;51.612;5.536;2022-10-31T05:34:38;20.40;;;14.30;;
59786;SDS011;45672;51.612;5.536;2022-10-31T05:37:03;20.70;;;13.30;;
59786;SDS011;45672;51.612;5.536;2022-10-31T05:39:28;24.10;;;13.77;;
59786;SDS011;45672;51.612;5.536;2022-10-31T05:41:54;21.40;;;12.77;;
59786;SDS011;45672;51.612;5.536;2022-10-31T05:44:19;19.58;;;13.43;;
59786;SDS011;45672;51.612;5.536;2022-10-31T05:46:45;20.33;;;12.80;;
59786;SDS011;45672;51.612;5.536;2022-10-31T05:49:11;16.30;;;12.52;;
59786;SDS011;45672;51.612;5.536;2022-10-31T05:51:36;28.23;;;12.73;;
59786;SDS011;45672;51.612;5.536;2022-10-31T05:54:01;24.83;;;13.80;;
59786;SDS011;45672;51.612;5.536;2022-10-31T05:56:27;19.88;;;12.45;;
59786;SDS011;45672;51.612;5.536;2022-10-31T05:58:52;18.20;;;12.52;;
59786;SDS011;45672;51.612;5.536;2022-10-31T06:01:17;18.52;;;12.63;;
59786;SDS011;45672;51.612;5.536;2022-10-31T06:03:42;21.90;;;12.90;;
59786;SDS011;45672;51.612;5.536;2022-10-31T06:06:08;19.55;;;13.20;;
59786;SDS011;45672;51.612;5.536;2022-10-31T06:08:33;19.85;;;13.43;;
59786;SDS011;45672;51.612;5.536;2022-10-31T06:10:58;21.15;;;13.77;;
59786;SDS011;45672;51.612;5.536;2022-10-31T06:13:23;18.52;;;13.68;;
59786;SDS011;45672;51.612;5.536;2022-10-31T06:15:49;18.98;;;13.13;;
59786;SDS011;45672;51.612;5.536;2022-10-31T06:18:14;19.55;;;14.25;;
59786;SDS011;45672;51.612;5.536;2022-10-31T06:20:39;20.83;;;13.95;;
59786;SDS011;45672;51.612;5.536;2022-10-31T06:23:04;22.17;;;14.25;;
59786;SDS011;45672;51.612;5.536;2022-10-31T06:25:31;23.98;;;14.65;;
59786;SDS011;45672;51.612;5.536;2022-10-31T06:27:57;23.25;;;14.25;;
59786;SDS011;45672;51.612;5.536;2022-10-31T06:30:23;21.25;;;14.88;;
59786;SDS011;45672;51.612;5.536;2022-10-31T06:32:48;26.77;;;15.00;;
59786;SDS011;45672;51.612;5.536;2022-10-31T06:35:14;19.98;;;13.82;;
59786;SDS011;45672;51.612;5.536;2022-10-31T06:37:40;22.80;;;15.05;;
59786;SDS011;45672;51.612;5.536;2022-10-31T06:40:05;27.35;;;15.30;;
59786;SDS011;45672;51.612;5.536;2022-10-31T06:42:31;20.75;;;14.75;;
59786;SDS011;45672;51.612;5.536;2022-10-31T06:44:56;30.67;;;15.68;;
59786;SDS011;45672;51.612;5.536;2022-10-31T06:47:21;25.58;;;16.35;;
59786;SDS011;45672;51.612;5.536;2022-10-31T06:49:46;22.65;;;14.93;;
59786;SDS011;45672;51.612;5.536;2022-10-31T06:52:13;29.25;;;15.13;;
59786;SDS011;45672;51.612;5.536;2022-10-31T06:54:38;29.10;;;15.73;;
59786;SDS011;45672;51.612;5.536;2022-10-31T06:57:04;24.85;;;15.95;;
59786;SDS011;45672;51.612;5.536;2022-10-31T06:59:29;26.30;;;16.48;;
59786;SDS011;45672;51.612;5.536;2022-10-31T07:01:54;29.35;;;16.50;;
59786;SDS011;45672;51.612;5.536;2022-10-31T07:04:19;26.92;;;16.63;;
59786;SDS011;45672;51.612;5.536;2022-10-31T07:06:45;29.85;;;17.63;;
59786;SDS011;45672;51.612;5.536;2022-10-31T07:09:10;27.52;;;16.73;;
59786;SDS011;45672;51.612;5.536;2022-10-31T07:11:35;24.75;;;15.43;;
59786;SDS011;45672;51.612;5.536;2022-10-31T07:14:01;24.65;;;15.70;;
59786;SDS011;45672;51.612;5.536;2022-10-31T07:16:26;25.83;;;15.80;;
59786;SDS011;45672;51.612;5.536;2022-10-31T07:18:52;28.00;;;16.92;;
59786;SDS011;45672;51.612;5.536;2022-10-31T07:21:17;27.67;;;16.30;;
59786;SDS011;45672;51.612;5.536;2022-10-31T07:23:42;31.70;;;18.30;;
59786;SDS011;45672;51.612;5.536;2022-10-31T07:26:08;25.30;;;16.10;;
59786;SDS011;45672;51.612;5.536;2022-10-31T07:28:34;25.73;;;17.05;;
59786;SDS011;45672;51.612;5.536;2022-10-31T07:30:59;23.80;;;17.17;;
59786;SDS011;45672;51.612;5.536;2022-10-31T07:33:25;26.48;;;16.67;;
59786;SDS011;45672;51.612;5.536;2022-10-31T07:35:51;28.63;;;17.08;;
59786;SDS011;45672;51.612;5.536;2022-10-31T07:38:16;30.77;;;18.00;;
59786;SDS011;45672;51.612;5.536;2022-10-31T07:40:42;32.58;;;17.27;;
59786;SDS011;45672;51.612;5.536;2022-10-31T07:43:08;29.02;;;17.33;;
59786;SDS011;45672;51.612;5.536;2022-10-31T07:45:35;26.10;;;18.23;;
59786;SDS011;45672;51.612;5.536;2022-10-31T07:48:01;27.67;;;17.85;;
59786;SDS011;45672;51.612;5.536;2022-10-31T07:50:28;29.75;;;18.98;;
59786;SDS011;45672;51.612;5.536;2022-10-31T07:53:01;25.45;;;18.65;;
59786;SDS011;45672;51.612;5.536;2022-10-31T07:55:31;32.90;;;19.65;;
59786;SDS011;45672;51.612;5.536;2022-10-31T07:58:07;28.95;;;19.55;;
59786;SDS011;45672;51.612;5.536;2022-10-31T08:00:34;28.02;;;19.73;;
59786;SDS011;45672;51.612;5.536;2022-10-31T08:03:01;32.10;;;20.40;;
59786;SDS011;45672;51.612;5.536;2022-10-31T08:05:26;28.77;;;19.83;;
59786;SDS011;45672;51.612;5.536;2022-10-31T08:07:52;31.80;;;20.05;;
59786;SDS011;45672;51.612;5.536;2022-10-31T08:10:18;35.03;;;21.35;;
59786;SDS011;45672;51.612;5.536;2022-10-31T08:12:43;32.00;;;21.15;;
59786;SDS011;45672;51.612;5.536;2022-10-31T08:15:08;29.67;;;21.67;;
59786;SDS011;45672;51.612;5.536;2022-10-31T08:17:34;40.38;;;22.48;;
59786;SDS011;45672;51.612;5.536;2022-10-31T08:20:00;39.13;;;22.35;;
59786;SDS011;45672;51.612;5.536;2022-10-31T08:22:26;36.75;;;21.30;;
59786;SDS011;45672;51.612;5.536;2022-10-31T08:24:51;30.38;;;21.15;;
59786;SDS011;45672;51.612;5.536;2022-10-31T08:27:16;32.55;;;22.10;;
59786;SDS011;45672;51.612;5.536;2022-10-31T08:29:41;35.53;;;21.80;;
59786;SDS011;45672;51.612;5.536;2022-10-31T08:32:07;37.00;;;22.20;;
59786;SDS011;45672;51.612;5.536;2022-10-31T08:34:32;38.88;;;22.77;;
59786;SDS011;45672;51.612;5.536;2022-10-31T08:36:57;36.35;;;22.65;;
59786;SDS011;45672;51.612;5.536;2022-10-31T08:39:23;39.22;;;24.17;;
59786;SDS011;45672;51.612;5.536;2022-10-31T08:41:48;39.58;;;23.83;;
59786;SDS011;45672;51.612;5.536;2022-10-31T08:44:14;40.45;;;23.38;;
59786;SDS011;45672;51.612;5.536;2022-10-31T08:46:40;38.03;;;21.55;;
59786;SDS011;45672;51.612;5.536;2022-10-31T08:49:06;33.33;;;21.77;;
59786;SDS011;45672;51.612;5.536;2022-10-31T08:51:31;34.33;;;20.27;;
59786;SDS011;45672;51.612;5.536;2022-10-31T08:53:56;36.05;;;19.73;;
59786;SDS011;45672;51.612;5.536;2022-10-31T08:56:21;29.25;;;19.23;;
59786;SDS011;45672;51.612;5.536;2022-10-31T08:58:47;29.42;;;19.33;;
59786;SDS011;45672;51.612;5.536;2022-10-31T09:01:12;30.67;;;19.88;;
59786;SDS011;45672;51.612;5.536;2022-10-31T09:03:38;33.70;;;20.30;;
59786;SDS011;45672;51.612;5.536;2022-10-31T09:06:03;40.05;;;19.73;;
59786;SDS011;45672;51.612;5.536;2022-10-31T09:08:30;31.05;;;20.80;;
59786;SDS011;45672;51.612;5.536;2022-10-31T09:10:57;32.58;;;20.50;;
59786;SDS011;45672;51.612;5.536;2022-10-31T09:13:23;32.33;;;19.67;;
59786;SDS011;45672;51.612;5.536;2022-10-31T09:15:49;37.17;;;19.27;;
59786;SDS011;45672;51.612;5.536;2022-10-31T09:18:16;35.00;;;20.25;;
59786;SDS011;45672;51.612;5.536;2022-10-31T09:20:44;33.25;;;20.83;;
59786;SDS011;45672;51.612;5.536;2022-10-31T09:23:11;30.75;;;20.42;;
59786;SDS011;45672;51.612;5.536;2022-10-31T09:25:38;35.50;;;20.15;;
59786;SDS011;45672;51.612;5.536;2022-10-31T09:28:05;34.53;;;20.73;;
59786;SDS011;45672;51.612;5.536;2022-10-31T09:30:32;32.10;;;19.60;;
59786;SDS011;45672;51.612;5.536;2022-10-31T09:33:00;29.02;;;20.00;;
59786;SDS011;45672;51.612;5.536;2022-10-31T09:35:35;35.88;;;19.38;;
59786;SDS011;45672;51.612;5.536;2022-10-31T09:38:04;31.42;;;19.92;;
59786;SDS011;45672;51.612;5.536;2022-10-31T09:40:37;29.10;;;18.98;;
59786;SDS011;45672;51.612;5.536;2022-10-31T09:43:44;36.55;;;21.27;;
59786;SDS011;45672;51.612;5.536;2022-10-31T09:49:28;37.90;;;22.05;;
59786;SDS011;45672;51.612;5.536;2022-10-31T09:54:52;38.85;;;21.77;;
59786;SDS011;45672;51.612;5.536;2022-10-31T09:57:27;43.58;;;22.42;;
59786;SDS011;45672;51.612;5.536;2022-10-31T09:59:55;37.90;;;22.75;;
59786;SDS011;45672;51.612;5.536;2022-10-31T10:05:32;38.05;;;22.38;;
59786;SDS011;45672;51.612;5.536;2022-10-31T10:27:23;45.58;;;24.30;;
59786;SDS011;45672;51.612;5.536;2022-10-31T10:32:56;41.33;;;24.83;;
59786;SDS011;45672;51.612;5.536;2022-10-31T10:35:28;35.25;;;22.48;;
59786;SDS011;45672;51.612;5.536;2022-10-31T10:38:09;49.08;;;26.73;;
59786;SDS011;45672;51.612;5.536;2022-10-31T10:40:52;44.67;;;25.17;;
59786;SDS011;45672;51.612;5.536;2022-10-31T10:43:22;48.75;;;26.42;;
59786;SDS011;45672;51.612;5.536;2022-10-31T11:00:52;45.00;;;26.73;;
59786;SDS011;45672;51.612;5.536;2022-10-31T11:03:01;48.70;;;27.33;;
59786;SDS011;45672;51.612;5.536;2022-10-31T11:07:54;46.22;;;27.45;;
59786;SDS011;45672;51.612;5.536;2022-10-31T11:10:20;47.20;;;26.83;;
59786;SDS011;45672;51.612;5.536;2022-10-31T11:12:56;48.60;;;27.67;;
59786;SDS011;45672;51.612;5.536;2022-10-31T11:15:25;45.85;;;26.85;;
59786;SDS011;45672;51.612;5.536;2022-10-31T11:17:53;48.28;;;27.55;;
59786;SDS011;45672;51.612;5.536;2022-10-31T11:20:25;50.38;;;27.63;;
59786;SDS011;45672;51.612;5.536;2022-10-31T11:23:03;48.22;;;25.55;;
59786;SDS011;45672;51.612;5.536;2022-10-31T11:25:30;47.28;;;26.48;;
59786;SDS011;45672;51.612;5.536;2022-10-31T11:28:14;47.92;;;27.27;;
59786;SDS011;45672;51.612;5.536;2022-10-31T11:30:43;50.22;;;27.05;;
59786;SDS011;45672;51.612;5.536;2022-10-31T11:33:16;47.75;;;25.98;;
59786;SDS011;45672;51.612;5.536;2022-10-31T11:35:44;47.25;;;27.75;;
59786;SDS011;45672;51.612;5.536;2022-10-31T11:38:12;47.92;;;27.65;;
59786;SDS011;45672;51.612;5.536;2022-10-31T11:40:51;49.88;;;26.80;;
59786;SDS011;45672;51.612;5.536;2022-10-31T11:43:18;49.55;;;26.23;;
59786;SDS011;45672;51.612;5.536;2022-10-31T11:45:44;49.15;;;26.80;;
59786;SDS011;45672;51.612;5.536;2022-10-31T11:48:19;47.55;;;25.45;;
59786;SDS011;45672;51.612;5.536;2022-10-31T11:51:05;41.90;;;26.88;;
59786;SDS011;45672;51.612;5.536;2022-10-31T11:53:32;42.30;;;26.45;;
59786;SDS011;45672;51.612;5.536;2022-10-31T11:58:40;50.23;;;26.27;;
59786;SDS011;45672;51.612;5.536;2022-10-31T12:01:08;36.83;;;24.90;;
59786;SDS011;45672;51.612;5.536;2022-10-31T12:04:11;40.97;;;24.80;;
59786;SDS011;45672;51.612;5.536;2022-10-31T12:06:39;42.22;;;25.08;;
59786;SDS011;45672;51.612;5.536;2022-10-31T12:17:15;42.60;;;24.60;;
59786;SDS011;45672;51.612;5.536;2022-10-31T12:25:34;41.10;;;22.83;;
59786;SDS011;45672;51.612;5.536;2022-10-31T12:36:47;42.13;;;23.65;;
59786;SDS011;45672;51.612;5.536;2022-10-31T12:50:39;42.13;;;21.05;;
59786;SDS011;45672;51.612;5.536;2022-10-31T12:58:46;37.28;;;19.15;;
59786;SDS011;45672;51.612;5.536;2022-10-31T13:01:26;34.50;;;17.95;;
59786;SDS011;45672;51.612;5.536;2022-10-31T13:06:50;32.13;;;17.85;;
59786;SDS011;45672;51.612;5.536;2022-10-31T13:09:23;35.88;;;17.48;;
59786;SDS011;45672;51.612;5.536;2022-10-31T13:12:14;29.92;;;16.27;;
59786;SDS011;45672;51.612;5.536;2022-10-31T13:14:44;37.83;;;15.57;;
59786;SDS011;45672;51.612;5.536;2022-10-31T13:17:18;29.52;;;14.82;;
59786;SDS011;45672;51.612;5.536;2022-10-31T13:19:59;27.08;;;14.48;;
59786;SDS011;45672;51.612;5.536;2022-10-31T13:22:40;22.25;;;14.02;;
59786;SDS011;45672;51.612;5.536;2022-10-31T13:27:48;28.37;;;14.13;;
59786;SDS011;45672;51.612;5.536;2022-10-31T13:30:19;30.73;;;14.85;;
59786;SDS011;45672;51.612;5.536;2022-10-31T13:32:58;28.55;;;14.15;;
59786;SDS011;45672;51.612;5.536;2022-10-31T13:35:48;29.98;;;14.02;;
59786;SDS011;45672;51.612;5.536;2022-10-31T13:38:45;32.40;;;13.80;;
59786;SDS011;45672;51.612;5.536;2022-10-31T13:46:39;20.90;;;13.57;;
59786;SDS011;45672;51.612;5.536;2022-10-31T13:54:37;31.20;;;13.47;;
59786;SDS011;45672;51.612;5.536;2022-10-31T13:57:07;21.70;;;13.38;;
59786;SDS011;45672;51.612;5.536;2022-10-31T13:59:45;25.83;;;13.05;;
59786;SDS011;45672;51.612;5.536;2022-10-31T14:02:15;24.55;;;12.57;;
59786;SDS011;45672;51.612;5.536;2022-10-31T14:04:46;26.88;;;13.00;;
59786;SDS011;45672;51.612;5.536;2022-10-31T14:07:17;28.92;;;13.57;;
59786;SDS011;45672;51.612;5.536;2022-10-31T14:15:01;28.52;;;13.25;;
59786;SDS011;45672;51.612;5.536;2022-10-31T14:17:44;25.42;;;13.80;;
59786;SDS011;45672;51.612;5.536;2022-10-31T14:22:36;23.80;;;14.35;;
59786;SDS011;45672;51.612;5.536;2022-10-31T14:27:54;27.30;;;15.07;;
59786;SDS011;45672;51.612;5.536;2022-10-31T14:30:20;25.25;;;14.65;;
59786;SDS011;45672;51.612;5.536;2022-10-31T14:33:00;30.20;;;15.23;;
59786;SDS011;45672;51.612;5.536;2022-10-31T14:38:29;26.30;;;14.20;;
59786;SDS011;45672;51.612;5.536;2022-10-31T14:46:57;29.33;;;14.43;;
59786;SDS011;45672;51.612;5.536;2022-10-31T14:49:50;32.42;;;15.02;;
59786;SDS011;45672;51.612;5.536;2022-10-31T14:52:32;27.70;;;14.27;;
59786;SDS011;45672;51.612;5.536;2022-10-31T14:55:00;31.13;;;15.02;;
59786;SDS011;45672;51.612;5.536;2022-10-31T14:57:30;30.35;;;14.68;;
59786;SDS011;45672;51.612;5.536;2022-10-31T15:00:00;31.92;;;14.38;;
59786;SDS011;45672;51.612;5.536;2022-10-31T15:05:22;27.75;;;14.77;;
59786;SDS011;45672;51.612;5.536;2022-10-31T15:07:54;31.92;;;14.65;;
59786;SDS011;45672;51.612;5.536;2022-10-31T15:10:31;22.25;;;13.27;;
59786;SDS011;45672;51.612;5.536;2022-10-31T15:15:54;21.50;;;13.65;;
59786;SDS011;45672;51.612;5.536;2022-10-31T15:18:24;26.13;;;13.50;;
59786;SDS011;45672;51.612;5.536;2022-10-31T15:20:51;26.63;;;13.63;;
59786;SDS011;45672;51.612;5.536;2022-10-31T15:23:23;31.35;;;13.50;;
59786;SDS011;45672;51.612;5.536;2022-10-31T15:25:50;31.95;;;13.77;;
59786;SDS011;45672;51.612;5.536;2022-10-31T15:28:24;30.27;;;13.48;;
59786;SDS011;45672;51.612;5.536;2022-10-31T15:30:50;27.20;;;12.95;;
59786;SDS011;45672;51.612;5.536;2022-10-31T15:33:22;25.77;;;14.02;;
59786;SDS011;45672;51.612;5.536;2022-10-31T15:36:00;30.52;;;13.18;;
59786;SDS011;45672;51.612;5.536;2022-10-31T15:38:26;23.23;;;13.52;;
59786;SDS011;45672;51.612;5.536;2022-10-31T15:40:57;23.13;;;13.38;;
59786;SDS011;45672;51.612;5.536;2022-10-31T15:43:28;24.35;;;13.43;;
59786;SDS011;45672;51.612;5.536;2022-10-31T15:45:59;25.52;;;13.55;;
59786;SDS011;45672;51.612;5.536;2022-10-31T15:48:26;25.00;;;13.45;;
59786;SDS011;45672;51.612;5.536;2022-10-31T15:50:55;24.25;;;13.70;;
59786;SDS011;45672;51.612;5.536;2022-10-31T15:53:26;31.63;;;13.98;;
59786;SDS011;45672;51.612;5.536;2022-10-31T15:55:59;29.27;;;13.40;;
59786;SDS011;45672;51.612;5.536;2022-10-31T15:58:27;27.35;;;14.20;;
59786;SDS011;45672;51.612;5.536;2022-10-31T16:00:57;24.40;;;13.43;;
59786;SDS011;45672;51.612;5.536;2022-10-31T16:03:25;31.00;;;13.43;;
59786;SDS011;45672;51.612;5.536;2022-10-31T16:05:54;27.77;;;13.40;;
59786;SDS011;45672;51.612;5.536;2022-10-31T16:10:54;29.57;;;14.10;;
59786;SDS011;45672;51.612;5.536;2022-10-31T16:13:23;26.17;;;14.32;;
59786;SDS011;45672;51.612;5.536;2022-10-31T16:15:57;27.85;;;14.35;;
59786;SDS011;45672;51.612;5.536;2022-10-31T16:18:26;27.98;;;14.57;;
59786;SDS011;45672;51.612;5.536;2022-10-31T16:20:53;30.17;;;14.77;;
59786;SDS011;45672;51.612;5.536;2022-10-31T16:23:21;27.27;;;14.85;;
59786;SDS011;45672;51.612;5.536;2022-10-31T16:25:49;29.83;;;14.73;;
59786;SDS011;45672;51.612;5.536;2022-10-31T16:28:17;40.67;;;13.95;;
59786;SDS011;45672;51.612;5.536;2022-10-31T16:30:50;29.17;;;14.15;;
59786;SDS011;45672;51.612;5.536;2022-10-31T16:33:30;34.05;;;14.65;;
59786;SDS011;45672;51.612;5.536;2022-10-31T16:35:59;29.83;;;14.65;;
59786;SDS011;45672;51.612;5.536;2022-10-31T16:38:27;28.88;;;13.82;;
59786;SDS011;45672;51.612;5.536;2022-10-31T16:40:52;25.10;;;14.15;;
59786;SDS011;45672;51.612;5.536;2022-10-31T16:43:19;29.13;;;13.93;;
59786;SDS011;45672;51.612;5.536;2022-10-31T16:45:48;33.67;;;14.63;;
59786;SDS011;45672;51.612;5.536;2022-10-31T16:48:18;27.20;;;13.35;;
59786;SDS011;45672;51.612;5.536;2022-10-31T16:50:46;25.45;;;12.35;;
59786;SDS011;45672;51.612;5.536;2022-10-31T16:53:13;29.05;;;13.02;;
59786;SDS011;45672;51.612;5.536;2022-10-31T16:55:43;25.10;;;11.70;;
59786;SDS011;45672;51.612;5.536;2022-10-31T16:58:15;20.50;;;11.95;;
59786;SDS011;45672;51.612;5.536;2022-10-31T17:00:44;26.52;;;11.77;;
59786;SDS011;45672;51.612;5.536;2022-10-31T17:03:09;24.65;;;11.27;;
59786;SDS011;45672;51.612;5.536;2022-10-31T17:05:35;31.17;;;12.02;;
59786;SDS011;45672;51.612;5.536;2022-10-31T17:08:02;21.70;;;11.23;;
59786;SDS011;45672;51.612;5.536;2022-10-31T17:10:27;28.23;;;11.15;;
59786;SDS011;45672;51.612;5.536;2022-10-31T17:12:53;23.35;;;12.25;;
59786;SDS011;45672;51.612;5.536;2022-10-31T17:15:22;19.90;;;10.52;;
59786;SDS011;45672;51.612;5.536;2022-10-31T17:17:50;14.27;;;10.32;;
59786;SDS011;45672;51.612;5.536;2022-10-31T17:22:54;22.05;;;10.73;;
59786;SDS011;45672;51.612;5.536;2022-10-31T17:25:22;24.02;;;10.35;;
59786;SDS011;45672;51.612;5.536;2022-10-31T17:27:49;21.63;;;8.93;;
59786;SDS011;45672;51.612;5.536;2022-10-31T17:30:15;15.32;;;8.70;;
59786;SDS011;45672;51.612;5.536;2022-10-31T17:32:42;17.90;;;9.13;;
59786;SDS011;45672;51.612;5.536;2022-10-31T17:35:09;18.20;;;9.13;;
59786;SDS011;45672;51.612;5.536;2022-10-31T17:37:35;15.65;;;8.32;;